createdAt,value
2018-07-02T00:01:36.410Z,2.90
2018-07-02T00:04:03.404Z,2.90
2018-07-02T00:06:36.446Z,2.95
2018-07-02T00:09:03.597Z,3.50
2018-07-02T00:11:30.747Z,4.78
2018-07-02T00:13:57.695Z,3.30
2018-07-02T00:16:24.847Z,3.20
2018-07-02T00:18:51.900Z,3.85
2018-07-02T00:21:18.949Z,5.00
2018-07-02T00:23:46.099Z,2.80
2018-07-02T00:26:13.143Z,5.10
2018-07-02T00:28:40.190Z,3.05
2018-07-02T00:31:07.244Z,3.22
2018-07-02T00:33:34.287Z,3.35
2018-07-02T00:36:01.337Z,4.03
2018-07-02T00:38:28.390Z,4.87
2018-07-02T00:40:55.433Z,3.58
2018-07-02T00:43:22.482Z,4.32
2018-07-02T00:45:49.535Z,9.90
2018-07-02T00:48:16.535Z,5.15
2018-07-02T00:50:43.628Z,5.50
2018-07-02T00:53:10.680Z,3.53
2018-07-02T00:55:37.931Z,5.93
2018-07-02T00:58:04.984Z,3.70
2018-07-02T01:00:32.029Z,3.33
2018-07-02T01:02:59.076Z,5.15
2018-07-02T01:05:26.129Z,5.50
2018-07-02T01:07:53.171Z,2.95
2018-07-02T01:10:20.221Z,2.62
2018-07-02T01:12:47.274Z,5.57
2018-07-02T01:15:14.524Z,3.25
2018-07-02T01:17:41.591Z,6.75
2018-07-02T01:20:08.621Z,2.80
2018-07-02T01:22:36.079Z,2.60
2018-07-02T01:25:03.229Z,2.90
2018-07-02T01:27:30.322Z,7.18
2018-07-02T01:29:57.430Z,5.72
2018-07-02T01:32:25.450Z,2.10
2018-07-02T01:34:52.557Z,2.75
2018-07-02T01:37:19.599Z,2.95
2018-07-02T01:39:46.648Z,3.03
2018-07-02T01:42:13.700Z,2.83
2018-07-02T01:44:40.746Z,2.47
2018-07-02T01:47:07.794Z,2.90
2018-07-02T01:49:34.847Z,4.03
2018-07-02T01:52:02.712Z,2.53
2018-07-02T01:54:29.764Z,9.23
2018-07-02T01:56:56.806Z,3.42
2018-07-02T01:59:24.680Z,3.83
2018-07-02T02:01:51.669Z,4.55
2018-07-02T02:04:18.677Z,2.87
2018-07-02T02:06:47.325Z,4.22
2018-07-02T02:09:14.308Z,3.40
2018-07-02T02:11:41.357Z,2.58
2018-07-02T02:14:08.402Z,3.25
2018-07-02T02:16:36.276Z,2.55
2018-07-02T02:19:03.318Z,2.97
2018-07-02T02:21:30.268Z,2.90
2018-07-02T02:23:58.037Z,3.78
2018-07-02T02:26:25.077Z,5.47
2018-07-02T02:28:52.125Z,4.32
2018-07-02T02:31:19.179Z,3.67
2018-07-02T02:33:46.210Z,3.67
2018-07-02T02:36:13.273Z,4.10
2018-07-02T02:38:40.326Z,3.37
2018-07-02T02:41:08.291Z,3.20
2018-07-02T02:43:35.340Z,2.95
2018-07-02T02:46:02.393Z,3.55
2018-07-02T02:48:29.439Z,3.05
2018-07-02T02:50:56.487Z,3.62
2018-07-02T02:53:23.538Z,2.40
2018-07-02T02:55:50.583Z,3.05
2018-07-02T02:58:17.632Z,4.90
2018-07-02T03:00:44.686Z,2.60
2018-07-02T03:03:11.674Z,4.22
2018-07-02T03:05:38.801Z,3.67
2018-07-02T03:08:05.830Z,2.92
2018-07-02T03:10:32.874Z,7.07
2018-07-02T03:12:59.924Z,3.12
2018-07-02T03:15:26.976Z,2.30
2018-07-02T03:17:54.020Z,2.97
2018-07-02T03:20:21.085Z,2.72
2018-07-02T03:22:48.122Z,3.20
2018-07-02T03:25:15.167Z,4.15
2018-07-02T03:27:42.214Z,2.65
2018-07-02T03:30:09.269Z,7.00
2018-07-02T03:32:36.209Z,3.00
2018-07-02T03:35:03.264Z,4.25
2018-07-02T03:37:30.306Z,3.67
2018-07-02T03:39:57.355Z,4.55
2018-07-02T03:42:24.409Z,3.28
2018-07-02T03:44:51.452Z,4.78
2018-07-02T03:47:18.503Z,2.97
2018-07-02T03:49:45.554Z,6.03
2018-07-02T03:52:12.598Z,5.05
2018-07-02T03:54:39.646Z,3.53
2018-07-02T03:57:06.702Z,9.60
2018-07-02T03:59:33.745Z,5.25
2018-07-02T04:02:00.792Z,2.53
2018-07-02T04:04:27.777Z,2.22
2018-07-02T04:06:54.788Z,3.50
2018-07-02T04:09:21.782Z,2.40
2018-07-02T04:11:48.884Z,2.92
2018-07-02T04:14:15.935Z,7.07
2018-07-02T04:16:42.989Z,2.62
2018-07-02T04:19:10.649Z,3.22
2018-07-02T04:21:39.946Z,3.30
2018-07-02T04:24:06.995Z,2.65
2018-07-02T04:26:34.049Z,2.72
2018-07-02T04:29:01.092Z,3.67
2018-07-02T04:31:28.141Z,2.33
2018-07-02T04:33:55.132Z,4.70
2018-07-02T04:36:22.238Z,7.87
2018-07-02T04:38:49.288Z,3.17
2018-07-02T04:41:16.340Z,5.87
2018-07-02T04:43:43.383Z,2.20
2018-07-02T04:46:10.433Z,3.37
2018-07-02T04:48:37.485Z,4.57
2018-07-02T04:51:04.532Z,2.60
2018-07-02T04:53:31.579Z,4.28
2018-07-02T04:55:58.633Z,2.85
2018-07-02T04:58:25.677Z,2.70
2018-07-02T05:00:52.781Z,2.72
2018-07-02T05:03:19.782Z,6.22
2018-07-02T05:05:47.439Z,2.92
2018-07-02T05:08:14.489Z,2.75
2018-07-02T05:10:41.540Z,2.50
2018-07-02T05:13:09.000Z,5.65
2018-07-02T05:15:36.656Z,3.28
2018-07-02T05:18:03.705Z,2.70
2018-07-02T05:20:31.993Z,3.80
2018-07-02T05:23:01.176Z,4.45
2018-07-02T05:25:28.227Z,2.87
2018-07-02T05:27:55.284Z,2.87
2018-07-02T05:30:22.326Z,3.72
2018-07-02T05:32:49.476Z,6.10
2018-07-02T05:35:16.629Z,3.12
2018-07-02T05:37:43.676Z,2.65
2018-07-02T05:40:10.730Z,3.42
2018-07-02T05:42:38.592Z,2.95
2018-07-02T05:45:05.575Z,8.18
2018-07-02T05:47:32.587Z,3.28
2018-07-02T05:49:59.644Z,3.62
2018-07-02T05:52:26.582Z,4.45
2018-07-02T05:54:53.645Z,4.62
2018-07-02T05:57:20.943Z,2.85
2018-07-02T05:59:48.246Z,6.90
2018-07-02T06:02:15.186Z,4.18
2018-07-02T06:04:42.243Z,2.35
2018-07-02T06:07:09.591Z,2.70
2018-07-02T06:09:36.639Z,2.60
2018-07-02T06:12:03.693Z,9.82
2018-07-02T06:14:30.844Z,7.05
2018-07-02T06:16:57.890Z,4.07
2018-07-02T06:19:24.936Z,2.80
2018-07-02T06:21:51.990Z,3.42
2018-07-02T06:24:19.034Z,2.60
2018-07-02T06:26:46.082Z,5.50
2018-07-02T06:29:28.712Z,3.70
2018-07-02T06:31:56.769Z,6.62
2018-07-02T06:34:23.818Z,3.28
2018-07-02T06:36:50.765Z,2.50
2018-07-02T06:39:18.944Z,4.32
2018-07-02T06:41:45.987Z,5.47
2018-07-02T06:44:13.035Z,3.45
2018-07-02T06:46:40.090Z,3.90
2018-07-02T06:49:07.137Z,7.68
2018-07-02T06:51:34.151Z,2.95
2018-07-02T06:54:01.132Z,3.35
2018-07-02T06:56:28.386Z,3.40
2018-07-02T06:58:55.430Z,8.23
2018-07-02T07:01:22.478Z,2.67
2018-07-02T07:03:51.289Z,4.85
2018-07-02T07:06:18.316Z,3.45
2018-07-02T07:08:45.370Z,4.85
2018-07-02T07:11:12.413Z,6.00
2018-07-02T07:13:39.510Z,4.30
2018-07-02T07:16:06.716Z,4.43
2018-07-02T07:18:33.763Z,4.07
2018-07-02T07:21:00.712Z,3.47
2018-07-02T07:23:27.759Z,5.50
2018-07-02T07:25:54.708Z,4.65
2018-07-02T07:28:21.862Z,3.53
2018-07-02T07:30:49.213Z,4.50
2018-07-02T07:33:16.267Z,5.55
2018-07-02T07:35:43.314Z,3.37
2018-07-02T07:38:10.359Z,2.80
2018-07-02T07:40:37.509Z,4.95
2018-07-02T07:43:04.659Z,3.00
2018-07-02T07:45:31.857Z,4.15
2018-07-02T07:47:58.864Z,6.37
2018-07-02T07:50:25.909Z,4.03
2018-07-02T07:52:53.474Z,3.80
2018-07-02T07:55:20.727Z,4.28
2018-07-02T07:57:47.778Z,3.10
2018-07-02T08:00:14.821Z,4.55
2018-07-02T08:02:41.869Z,6.05
2018-07-02T08:05:08.939Z,2.97
2018-07-02T08:07:36.277Z,7.07
2018-07-02T08:10:03.320Z,4.85
2018-07-02T08:12:30.420Z,3.10
2018-07-02T08:14:57.929Z,3.25
2018-07-02T08:17:25.291Z,3.08
2018-07-02T08:19:52.334Z,7.57
2018-07-02T08:22:19.384Z,3.40
2018-07-02T08:24:46.534Z,3.00
2018-07-02T08:27:13.727Z,3.78
2018-07-02T08:29:40.836Z,3.03
2018-07-02T08:32:11.820Z,4.35
2018-07-02T08:34:38.824Z,5.03
2018-07-02T08:37:05.772Z,5.68
2018-07-02T08:39:32.722Z,4.78
2018-07-02T08:41:59.766Z,4.53
2018-07-02T08:44:26.814Z,5.65
2018-07-02T08:46:53.908Z,6.43
2018-07-02T08:49:20.912Z,7.78
2018-07-02T08:51:48.063Z,5.95
2018-07-02T08:54:15.049Z,4.50
2018-07-02T08:56:42.001Z,7.70
2018-07-02T08:59:08.961Z,7.45
2018-07-02T09:01:36.052Z,4.75
2018-07-02T09:04:03.101Z,4.18
2018-07-02T09:06:30.155Z,4.80
2018-07-02T09:08:57.198Z,5.97
2018-07-02T09:11:24.246Z,6.45
2018-07-02T09:13:51.374Z,4.78
2018-07-02T09:16:18.390Z,9.70
2018-07-02T09:18:45.393Z,4.25
2018-07-02T09:21:12.647Z,3.30
2018-07-02T09:23:39.602Z,6.05
2018-07-02T09:26:06.640Z,4.90
2018-07-02T09:28:33.689Z,4.18
2018-07-02T09:31:00.852Z,4.65
2018-07-02T09:33:27.990Z,4.22
2018-07-02T09:35:55.141Z,6.85
2018-07-02T09:38:22.236Z,3.92
2018-07-02T09:40:49.444Z,4.22
2018-07-02T09:43:16.498Z,4.07
2018-07-02T09:45:43.746Z,5.43
2018-07-02T09:48:10.898Z,8.07
2018-07-02T09:50:37.949Z,3.75
2018-07-02T09:53:04.997Z,5.50
2018-07-02T09:55:32.042Z,5.82
2018-07-02T09:57:59.096Z,4.12
2018-07-02T10:00:26.037Z,5.50
2018-07-02T10:02:53.090Z,6.22
2018-07-02T10:05:20.137Z,5.93
2018-07-02T10:07:47.115Z,4.90
2018-07-02T10:10:14.486Z,5.45
2018-07-02T10:12:41.559Z,6.78
2018-07-02T10:15:08.538Z,6.97
2018-07-02T10:17:35.689Z,7.82
2018-07-02T10:20:02.939Z,6.43
2018-07-02T10:22:29.991Z,5.28
2018-07-02T10:24:57.141Z,5.72
2018-07-02T10:27:24.293Z,10.95
2018-07-02T10:29:51.338Z,8.60
2018-07-02T10:32:20.042Z,8.02
2018-07-02T10:34:47.287Z,9.23
2018-07-02T10:37:14.325Z,5.25
2018-07-02T10:39:41.374Z,6.65
2018-07-02T10:42:08.967Z,7.30
2018-07-02T10:44:35.983Z,6.70
2018-07-02T10:47:03.088Z,5.00
2018-07-02T10:49:30.807Z,5.97
2018-07-02T10:52:00.594Z,5.30
2018-07-02T10:54:27.562Z,7.25
2018-07-02T10:56:54.606Z,5.18
2018-07-02T10:59:21.760Z,5.15
2018-07-02T11:01:48.810Z,5.97
2018-07-02T11:04:15.955Z,7.97
2018-07-02T11:06:43.036Z,7.57
2018-07-02T11:09:10.976Z,7.50
2018-07-02T11:11:38.024Z,6.18
2018-07-02T11:14:05.078Z,5.03
2018-07-02T11:16:32.633Z,5.75
2018-07-02T11:18:59.521Z,6.25
2018-07-02T11:21:26.626Z,4.72
2018-07-02T11:23:55.007Z,6.75
2018-07-02T11:26:22.063Z,7.10
2018-07-02T11:28:49.104Z,5.35
2018-07-02T11:31:16.152Z,5.68
2018-07-02T11:33:43.206Z,6.37
2018-07-02T11:36:10.249Z,6.53
2018-07-02T11:38:38.123Z,4.93
2018-07-02T11:41:05.273Z,5.47
2018-07-02T11:43:32.268Z,4.75
2018-07-02T11:45:59.467Z,5.35
2018-07-02T11:48:26.467Z,4.85
2018-07-02T11:50:53.464Z,7.20
2018-07-02T11:53:20.511Z,7.37
2018-07-02T11:55:47.874Z,9.00
2018-07-02T11:58:19.632Z,5.68
2018-07-02T12:00:46.679Z,6.00
2018-07-02T12:03:13.773Z,5.53
2018-07-02T12:05:40.877Z,6.15
2018-07-02T12:08:07.766Z,8.15
2018-07-02T12:10:34.774Z,5.80
2018-07-02T12:13:01.817Z,6.97
2018-07-02T12:15:29.848Z,6.07
2018-07-02T12:17:57.638Z,5.15
2018-07-02T12:20:24.901Z,8.88
2018-07-02T12:22:52.560Z,5.82
2018-07-02T12:25:19.607Z,6.72
2018-07-02T12:27:46.655Z,5.60
2018-07-02T12:30:13.904Z,5.10
2018-07-02T12:32:41.166Z,5.72
2018-07-02T12:35:08.516Z,5.60
2018-07-02T12:37:35.972Z,6.47
2018-07-02T12:40:03.124Z,5.97
2018-07-02T12:42:30.169Z,5.75
2018-07-02T12:44:57.320Z,9.20
2018-07-02T12:47:24.376Z,8.10
2018-07-02T12:49:51.418Z,5.60
2018-07-02T12:52:18.467Z,6.00
2018-07-02T12:54:45.617Z,5.25
2018-07-02T12:57:12.768Z,6.70
2018-07-02T12:59:39.823Z,7.90
2018-07-02T13:02:09.057Z,6.97
2018-07-02T13:04:36.274Z,6.18
2018-07-02T13:07:03.833Z,6.20
2018-07-02T13:09:30.883Z,9.30
2018-07-02T13:11:58.067Z,7.20
2018-07-02T13:14:25.190Z,7.22
2018-07-02T13:16:52.537Z,6.40
2018-07-02T13:19:19.590Z,5.25
2018-07-02T13:21:46.640Z,5.72
2018-07-02T13:24:14.296Z,7.32
2018-07-02T13:26:41.294Z,5.25
2018-07-02T13:29:09.828Z,5.93
2018-07-02T13:31:38.252Z,5.80
2018-07-02T13:34:05.256Z,8.73
2018-07-02T13:36:32.318Z,7.12
2018-07-02T13:39:00.425Z,6.65
2018-07-02T13:41:28.577Z,6.40
2018-07-02T13:43:55.605Z,5.22
2018-07-02T13:46:22.653Z,6.65
2018-07-02T13:48:49.695Z,6.97
2018-07-02T13:51:16.644Z,5.85
2018-07-02T13:53:43.793Z,6.03
2018-07-02T13:56:10.894Z,6.00
2018-07-02T13:58:37.993Z,5.87
2018-07-02T14:01:05.554Z,7.55
2018-07-02T14:03:32.602Z,6.05
2018-07-02T14:05:59.657Z,7.37
2018-07-02T14:08:26.698Z,6.72
2018-07-02T14:10:54.158Z,5.70
2018-07-02T14:13:21.158Z,5.97
2018-07-02T14:15:48.152Z,6.65
2018-07-02T14:18:15.199Z,5.90
2018-07-02T14:20:42.274Z,5.53
2018-07-02T14:23:09.298Z,6.20
2018-07-02T14:25:36.346Z,5.65
2018-07-02T14:28:03.400Z,7.70
2018-07-02T14:30:30.445Z,5.37
2018-07-02T14:32:57.837Z,7.72
2018-07-02T14:35:24.950Z,11.68
2018-07-02T14:37:52.101Z,7.90
2018-07-02T14:40:19.354Z,8.20
2018-07-02T14:42:46.645Z,6.60
2018-07-02T14:45:14.109Z,5.95
2018-07-02T14:47:41.114Z,6.47
2018-07-02T14:50:09.205Z,5.55
2018-07-02T14:52:36.338Z,5.25
2018-07-02T14:55:03.488Z,5.47
2018-07-02T14:57:30.536Z,6.72
2018-07-02T14:59:57.590Z,8.30
2018-07-02T15:02:25.971Z,5.35
2018-07-02T15:04:54.044Z,5.50
2018-07-02T15:07:21.130Z,10.05
2018-07-02T15:09:48.240Z,7.43
2018-07-02T15:12:15.236Z,7.65
2018-07-02T15:14:42.492Z,5.57
2018-07-02T15:17:09.589Z,5.78
2018-07-02T15:19:36.570Z,5.60
2018-07-02T15:22:03.993Z,5.05
2018-07-02T15:24:31.039Z,6.05
2018-07-02T15:26:58.192Z,6.60
2018-07-02T15:29:26.264Z,5.18
2018-07-02T15:31:53.318Z,5.15
2018-07-02T15:34:20.363Z,5.37
2018-07-02T15:36:47.619Z,7.07
2018-07-02T15:39:14.969Z,5.18
2018-07-02T15:41:42.044Z,6.05
2018-07-02T15:44:09.168Z,5.18
2018-07-02T15:46:36.627Z,6.45
2018-07-02T15:49:04.341Z,5.50
2018-07-02T15:51:31.543Z,7.07
2018-07-02T15:53:59.855Z,5.20
2018-07-02T15:56:28.227Z,8.10
2018-07-02T15:58:58.666Z,8.93
2018-07-02T16:01:28.973Z,5.18
2018-07-02T16:03:56.211Z,6.57
2018-07-02T16:06:24.941Z,7.93
2018-07-02T16:08:52.575Z,5.00
2018-07-02T16:11:19.810Z,6.40
2018-07-02T16:13:47.105Z,5.28
2018-07-02T16:16:14.078Z,7.35
2018-07-02T16:18:41.262Z,11.02
2018-07-02T16:21:08.413Z,5.10
2018-07-02T16:23:36.731Z,7.28
2018-07-02T16:26:04.048Z,13.95
2018-07-02T16:28:31.615Z,9.23
2018-07-02T16:31:02.098Z,5.62
2018-07-02T16:33:29.840Z,5.32
2018-07-02T16:35:57.818Z,5.57
2018-07-02T16:38:24.928Z,6.45
2018-07-02T16:40:51.975Z,9.52
2018-07-02T16:43:19.531Z,12.93
2018-07-02T16:45:46.583Z,8.48
2018-07-02T16:48:13.832Z,7.82
2018-07-02T16:50:42.155Z,13.62
2018-07-02T16:53:09.412Z,5.90
2018-07-02T16:55:37.954Z,5.62
2018-07-02T16:58:04.997Z,10.07
2018-07-02T17:00:34.111Z,7.75
2018-07-02T17:03:02.419Z,5.45
2018-07-02T17:05:29.522Z,9.55
2018-07-02T17:07:56.898Z,5.70
2018-07-02T17:10:24.131Z,6.18
2018-07-02T17:12:51.179Z,5.07
2018-07-02T17:15:18.987Z,7.00
2018-07-02T17:17:46.198Z,7.30
2018-07-02T17:20:13.964Z,5.25
2018-07-02T17:22:42.301Z,7.22
2018-07-02T17:25:09.648Z,5.57
2018-07-02T17:27:36.953Z,5.25
2018-07-02T17:30:05.332Z,5.40
2018-07-02T17:32:34.531Z,5.45
2018-07-02T17:35:01.784Z,5.55
2018-07-02T17:37:29.242Z,5.45
2018-07-02T17:39:56.501Z,5.45
2018-07-02T17:42:23.478Z,5.75
2018-07-02T17:44:50.496Z,4.87
2018-07-02T17:47:17.540Z,6.50
2018-07-02T17:49:44.690Z,6.18
2018-07-02T17:52:12.256Z,5.18
2018-07-02T17:54:39.298Z,5.97
2018-07-02T17:57:08.318Z,6.65
2018-07-02T17:59:36.166Z,5.72
2018-07-02T18:02:04.980Z,5.32
2018-07-02T18:04:32.008Z,5.70
2018-07-02T18:07:00.298Z,5.60
2018-07-02T18:09:28.785Z,5.10
2018-07-02T18:11:57.424Z,5.97
2018-07-02T18:14:24.952Z,5.30
2018-07-02T18:16:53.309Z,5.72
2018-07-02T18:19:21.072Z,6.07
2018-07-02T18:21:49.837Z,5.78
2018-07-02T18:24:20.034Z,5.37
2018-07-02T18:26:47.525Z,6.45
2018-07-02T18:29:15.825Z,7.00
2018-07-02T18:31:44.286Z,6.60
2018-07-02T18:34:13.930Z,5.50
2018-07-02T18:36:42.508Z,5.03
2018-07-02T18:39:12.911Z,8.73
2018-07-02T18:41:43.495Z,5.12
2018-07-02T18:44:17.225Z,8.55
2018-07-02T18:46:45.645Z,9.07
2018-07-02T18:49:13.178Z,5.72
2018-07-02T18:51:45.448Z,5.25
2018-07-02T18:54:14.061Z,5.70
2018-07-02T18:56:44.703Z,6.10
2018-07-02T18:59:13.397Z,5.68
2018-07-02T19:01:40.810Z,5.80
2018-07-02T19:04:10.616Z,5.60
2018-07-02T19:06:41.052Z,5.78
2018-07-02T19:09:08.551Z,5.47
2018-07-02T19:11:37.961Z,5.32
2018-07-02T19:14:07.676Z,4.97
2018-07-02T19:16:36.007Z,5.68
2018-07-02T19:19:05.649Z,5.40
2018-07-02T19:21:35.066Z,6.62
2018-07-02T19:24:02.893Z,6.55
2018-07-02T19:26:33.570Z,6.70
2018-07-02T19:29:00.771Z,6.90
2018-07-02T19:31:28.872Z,6.90
2018-07-02T19:33:57.785Z,6.40
2018-07-02T19:36:26.016Z,8.80
2018-07-02T19:38:54.417Z,7.90
2018-07-02T19:41:26.869Z,7.70
2018-07-02T19:43:55.298Z,7.37
2018-07-02T19:46:24.904Z,10.20
2018-07-02T19:48:53.388Z,6.90
2018-07-02T19:51:21.924Z,6.57
2018-07-02T19:53:50.325Z,6.85
2018-07-02T19:56:23.471Z,7.07
2018-07-02T19:58:51.608Z,8.18
2018-07-02T20:01:19.991Z,7.32
2018-07-02T20:03:47.201Z,7.20
2018-07-02T20:06:17.783Z,7.05
2018-07-02T20:08:44.882Z,7.15
2018-07-02T20:11:12.138Z,7.03
2018-07-02T20:13:41.194Z,8.25
2018-07-02T20:16:12.998Z,9.68
2018-07-02T20:18:41.688Z,7.00
2018-07-02T20:21:10.209Z,7.47
2018-07-02T20:23:38.798Z,9.23
2018-07-02T20:26:11.604Z,9.52
2018-07-02T20:28:44.102Z,9.85
2018-07-02T20:31:12.846Z,11.65
2018-07-02T20:33:41.621Z,15.57
2018-07-02T20:36:10.226Z,12.48
2018-07-02T20:38:39.676Z,11.40
2018-07-02T20:41:08.405Z,12.35
2018-07-02T20:43:38.698Z,15.43
2018-07-02T20:46:07.000Z,11.60
2018-07-02T20:48:36.340Z,12.73
2018-07-02T20:51:04.186Z,14.10
2018-07-02T20:53:32.206Z,13.55
2018-07-02T20:55:59.516Z,13.82
2018-07-02T20:58:26.822Z,11.05
2018-07-02T21:00:54.281Z,14.05
2018-07-02T21:03:21.634Z,11.00
2018-07-02T21:05:48.680Z,10.95
2018-07-02T21:08:15.834Z,10.30
2018-07-02T21:10:43.088Z,12.10
2018-07-02T21:13:10.543Z,12.25
2018-07-02T21:15:37.496Z,13.48
2018-07-02T21:18:04.648Z,12.25
2018-07-02T21:20:31.688Z,12.23
2018-07-02T21:22:58.735Z,10.60
2018-07-02T21:25:25.791Z,11.52
2018-07-02T21:27:53.193Z,13.62
2018-07-02T21:30:20.292Z,13.88
2018-07-02T21:32:48.703Z,14.70
2018-07-02T21:35:15.720Z,16.90
2018-07-02T21:37:42.709Z,22.08
2018-07-02T21:40:09.817Z,19.75
2018-07-02T21:42:37.834Z,27.17
2018-07-02T21:45:05.457Z,24.85
2018-07-02T21:47:32.500Z,20.40
2018-07-02T21:49:59.551Z,23.87
2018-07-02T21:52:26.602Z,20.17
2018-07-02T21:54:53.645Z,19.45
2018-07-02T21:57:20.694Z,18.05
2018-07-02T21:59:47.750Z,19.83
2018-07-02T22:02:14.897Z,20.48
2018-07-02T22:04:41.942Z,18.35
2018-07-02T22:07:09.202Z,18.98
2018-07-02T22:09:36.248Z,17.42
2018-07-02T22:12:03.196Z,17.25
2018-07-02T22:14:30.346Z,17.35
2018-07-02T22:16:57.817Z,16.40
2018-07-02T22:19:24.847Z,20.00
2018-07-02T22:21:51.895Z,17.83
2018-07-02T22:24:18.951Z,18.62
2018-07-02T22:26:46.031Z,17.98
2018-07-02T22:29:12.990Z,18.73
2018-07-02T22:31:40.098Z,20.27
2018-07-02T22:34:07.140Z,20.90
2018-07-02T22:36:34.188Z,19.50
2018-07-02T22:39:01.177Z,19.10
2018-07-02T22:41:28.183Z,18.70
2018-07-02T22:43:55.237Z,17.27
2018-07-02T22:46:22.286Z,17.92
2018-07-02T22:48:49.435Z,18.23
2018-07-02T22:51:16.692Z,19.10
2018-07-02T22:53:43.733Z,20.95
2018-07-02T22:56:10.782Z,18.23
2018-07-02T22:58:37.840Z,17.08
2018-07-02T23:01:04.880Z,18.25
2018-07-02T23:03:31.930Z,19.60
2018-07-02T23:05:59.596Z,17.85
2018-07-02T23:08:26.639Z,17.85
2018-07-02T23:10:53.688Z,17.25
2018-07-02T23:13:20.744Z,17.55
2018-07-02T23:15:47.785Z,17.37
2018-07-02T23:18:14.781Z,17.70
2018-07-02T23:20:41.780Z,16.98
2018-07-02T23:23:08.830Z,18.48
2018-07-02T23:25:35.883Z,16.90
2018-07-02T23:28:02.905Z,17.35
2018-07-02T23:30:29.975Z,17.20
2018-07-02T23:32:57.028Z,17.65
2018-07-02T23:35:24.091Z,16.77
2018-07-02T23:37:51.121Z,18.37
2018-07-02T23:40:19.605Z,15.65
2018-07-02T23:42:46.555Z,16.80
2018-07-02T23:45:13.598Z,15.00
2018-07-02T23:47:40.647Z,16.23
2018-07-02T23:50:07.702Z,14.38
2018-07-02T23:52:34.744Z,16.85
2018-07-02T23:55:01.796Z,14.73
2018-07-02T23:57:28.847Z,14.43
2018-07-02T23:59:55.893Z,15.68
